Armada Township, Michigan
Current Conditions -  °F | °C
As of 3:58 AM on Monday 22 Dec 2014 (Local Time) from KMTC Reporting Station
Overcast Overcast  
Wind Chill: 24°   Ceiling: 2200
Heat Index: 31°   Visibility: 10mi
Dew Point: 26°   Wind: 8mph
Humidity: 80%   Direction: 140°SE
Pressure: 30.11"   Gusts: NA
Location:  42.8463°N, 82.9201°W
Report Text: KMTC 220858Z AUTO 14007KT 10SM OVC022 00/M03 A3011 RMK AO2 SLP207 T10051035 57017 $
Loading
Personal Weather Stations






























Interactive Weather Map New forecast layout! Learn more

10-Day Weather Forecast

Advertisements
Track Severe Weather on mobile